Time;durP1;ratioP1;P1;durP2;ratioP2;P2;SDS_P1;SDS_P2;PMS_P1;PMS_P2;Temp;Humidity;BMP_temperature;BMP_pressure;BME280_temperature;BME280_humidity;BME280_pressure;Samples;Min_cycle;Max_cycle;Signal;HPM_P1;HPM_P2
2023/02/08 00:00:34;;;;;;;1.33;1.33;;;;;;;-2.81;96.33;102841.34;5070102;28;20538;-70
2023/02/08 00:02:59;;;;;;;0.00;0.00;;;;;;;-2.90;96.21;102841.47;5070187;28;20171;-70
2023/02/08 00:05:25;;;;;;;0.03;0.03;;;;;;;-2.96;95.97;102834.13;5070131;28;20175;-71
2023/02/08 00:07:50;;;;;;;4.63;3.10;;;;;;;-3.02;96.18;102832.94;5068743;28;20214;-71
2023/02/08 00:10:15;;;;;;;0.00;0.00;;;;;;;-3.05;96.22;102838.59;5069847;28;20186;-71
2023/02/08 00:12:40;;;;;;;0.00;0.00;;;;;;;-3.08;97.03;102834.41;5070410;28;20666;-71
2023/02/08 00:15:06;;;;;;;5.20;1.50;;;;;;;-3.09;96.94;102831.91;5073049;28;20573;-71
2023/02/08 00:17:31;;;;;;;2.83;2.83;;;;;;;-3.14;97.06;102824.38;5073585;28;20254;-71
2023/02/08 00:19:57;;;;;;;0.63;0.63;;;;;;;-3.01;97.52;102824.75;5073470;28;20198;-70
2023/02/08 00:22:22;;;;;;;0.00;0.00;;;;;;;-3.26;97.21;102812.31;5073589;28;20228;-71
2023/02/08 00:24:50;;;;;;;0.00;0.00;;;;;;;-3.33;97.44;102813.94;5073462;28;20224;-71
2023/02/08 00:27:15;;;;;;;0.40;0.40;;;;;;;-3.39;97.65;102819.94;5071928;28;20673;-71
2023/02/08 00:29:41;;;;;;;0.00;0.00;;;;;;;-3.33;97.57;102808.59;5073328;28;20424;-70
2023/02/08 00:32:06;;;;;;;0.00;0.00;;;;;;;-3.38;97.86;102816.25;5073308;28;20178;-71
2023/02/08 00:34:34;;;;;;;0.00;0.00;;;;;;;-3.43;97.40;102807.91;5073449;28;20589;-71
2023/02/08 00:36:59;;;;;;;10.50;2.90;;;;;;;-3.63;97.85;102818.81;5071946;28;20171;-71
2023/02/08 00:39:24;;;;;;;0.00;0.00;;;;;;;-3.66;98.19;102818.28;5072231;28;20419;-71
2023/02/08 00:41:50;;;;;;;0.00;0.00;;;;;;;-3.68;98.92;102820.28;5071853;28;20182;-72
2023/02/08 00:44:15;;;;;;;0.10;0.10;;;;;;;-3.70;99.07;102822.28;5073219;28;20166;-71
2023/02/08 00:46:40;;;;;;;0.10;0.10;;;;;;;-3.66;99.40;102820.97;5073598;28;20651;-70
2023/02/08 00:49:06;;;;;;;0.00;0.00;;;;;;;-3.59;99.96;102819.34;5073098;28;20174;-72
2023/02/08 00:51:31;;;;;;;0.10;0.10;;;;;;;-3.39;99.60;102814.59;5071557;28;20492;-71
2023/02/08 00:53:56;;;;;;;2.93;2.83;;;;;;;-3.31;99.74;102809.28;5071646;28;20167;-70
2023/02/08 00:56:22;;;;;;;0.27;0.27;;;;;;;-3.11;99.92;102812.50;5072312;28;20220;-71
2023/02/08 00:58:47;;;;;;;0.00;0.00;;;;;;;-3.22;98.98;102807.47;5072938;28;20537;-70
2023/02/08 01:01:12;;;;;;;0.00;0.00;;;;;;;-3.27;98.93;102823.16;5072793;28;20217;-71
2023/02/08 01:03:40;;;;;;;0.00;0.00;;;;;;;-3.17;99.18;102816.69;5071466;28;20537;-71
2023/02/08 01:06:10;;;;;;;0.00;0.00;;;;;;;-3.16;98.97;102820.19;5072531;28;20241;-71
2023/02/08 01:08:35;;;;;;;0.20;0.20;;;;;;;-3.12;98.70;102817.03;5073018;28;20508;-71
2023/02/08 01:11:03;;;;;;;0.00;0.00;;;;;;;-3.05;98.30;102820.72;5072353;28;20516;-71
2023/02/08 01:13:28;;;;;;;0.00;0.00;;;;;;;-3.01;98.08;102827.44;5071279;28;20175;-72
2023/02/08 01:15:54;;;;;;;0.00;0.00;;;;;;;-2.92;97.66;102830.09;5072575;28;20424;-71
2023/02/08 01:18:19;;;;;;;0.00;0.00;;;;;;;-2.85;97.04;102828.47;5072356;28;20178;-71
2023/02/08 01:20:44;;;;;;;0.00;0.00;;;;;;;-2.91;96.92;102821.06;5072163;28;20178;-71
2023/02/08 01:23:10;;;;;;;0.00;0.00;;;;;;;-3.04;96.31;102822.41;5072291;28;20193;-70
2023/02/08 01:25:35;;;;;;;0.00;0.00;;;;;;;-3.26;96.11;102823.00;5072186;28;20202;-70
2023/02/08 01:28:00;;;;;;;0.00;0.00;;;;;;;-3.24;96.42;102828.16;5072168;28;20233;-72
2023/02/08 01:30:26;;;;;;;0.00;0.00;;;;;;;-3.09;96.36;102824.72;5071968;28;20550;-71
2023/02/08 01:32:51;;;;;;;0.10;0.10;;;;;;;-3.13;96.27;102818.03;5072115;28;20206;-71
2023/02/08 01:35:16;;;;;;;0.00;0.00;;;;;;;-3.01;96.20;102813.22;5072192;28;20170;-71
2023/02/08 01:37:41;;;;;;;1.10;1.03;;;;;;;-3.09;95.79;102808.69;5071714;28;20179;-72
2023/02/08 01:40:07;;;;;;;0.00;0.00;;;;;;;-3.19;95.00;102799.09;5071698;28;20248;-72
2023/02/08 01:42:32;;;;;;;0.00;0.00;;;;;;;-3.20;94.99;102803.63;5070700;28;20396;-71
2023/02/08 01:45:22;;;;;;;0.00;0.00;;;;;;;-3.20;94.98;102795.59;5071928;28;20257;-72
2023/02/08 01:47:52;;;;;;;0.93;0.93;;;;;;;-3.17;95.35;102797.97;5071710;28;20217;-71
2023/02/08 01:50:21;;;;;;;0.00;0.00;;;;;;;-3.18;95.37;102796.31;5071732;28;20437;-71
2023/02/08 01:52:49;;;;;;;0.00;0.00;;;;;;;-3.06;95.69;102810.19;5071930;28;20424;-71
2023/02/08 01:55:21;;;;;;;0.00;0.00;;;;;;;-3.16;95.50;102799.66;5071791;28;20419;-71
2023/02/08 01:57:51;;;;;;;3.00;2.90;;;;;;;-3.08;95.26;102812.19;5071334;28;20428;-71
2023/02/08 02:00:22;;;;;;;0.80;0.80;;;;;;;-3.11;94.99;102804.50;5071379;28;20883;-71
2023/02/08 02:02:52;;;;;;;0.07;0.07;;;;;;;-3.21;94.63;102799.28;5071698;28;20872;-72
2023/02/08 02:05:19;;;;;;;0.50;0.50;;;;;;;-3.36;94.48;102787.53;5071846;28;20900;-70
2023/02/08 02:07:45;;;;;;;0.10;0.10;;;;;;;-3.36;95.08;102785.69;5071217;28;20476;-70
2023/02/08 02:10:17;;;;;;;0.63;0.63;;;;;;;-3.35;94.46;102789.19;5070066;28;20445;-70
2023/02/08 02:12:44;;;;;;;0.87;0.87;;;;;;;-3.44;94.15;102793.69;5071494;28;20163;-70
2023/02/08 02:15:10;;;;;;;0.77;0.77;;;;;;;-3.55;94.90;102798.50;5070054;28;20417;-70
2023/02/08 02:17:37;;;;;;;0.33;0.33;;;;;;;-3.71;94.48;102800.09;5069897;28;20416;-71
2023/02/08 02:20:15;;;;;;;0.30;0.30;;;;;;;-3.74;94.65;102802.25;5071613;28;20412;-71
2023/02/08 02:23:28;;;;;;;0.43;0.43;;;;;;;-3.82;95.43;102797.69;5069909;28;20940;-71
2023/02/08 02:26:17;;;;;;;3.27;1.07;;;;;;;-3.86;95.50;102801.66;5070987;28;20417;-71
2023/02/08 02:29:14;;;;;;;1.37;1.37;;;;;;;-3.88;95.21;102803.66;5071092;28;20920;-70
2023/02/08 02:32:08;;;;;;;0.00;0.00;;;;;;;-3.86;96.11;102795.50;5000298;28;20432;-71
2023/02/08 02:34:46;;;;;;;2.67;2.50;;;;;;;-3.84;95.65;102793.50;5056709;28;20437;-70
2023/02/08 02:37:44;;;;;;;1.23;1.23;;;;;;;-3.86;95.81;102799.00;5069214;28;20832;-71
2023/02/08 02:40:17;;;;;;;0.30;0.30;;;;;;;-3.92;95.96;102792.44;5069563;28;20433;-71
2023/02/08 02:46:28;;;;;;;0.00;0.00;;;;;;;-3.87;95.97;102781.31;5070788;28;20452;-72
2023/02/08 02:49:00;;;;;;;0.00;0.00;;;;;;;-3.90;95.31;102781.63;5070993;28;20488;-71
2023/02/08 02:51:32;;;;;;;0.00;0.00;;;;;;;-3.85;95.37;102775.81;5070778;28;20470;-71
2023/02/08 02:54:12;;;;;;;0.00;0.00;;;;;;;-3.80;95.22;102778.81;5069545;28;20417;-71
2023/02/08 02:56:42;;;;;;;0.40;0.40;;;;;;;-3.84;94.80;102775.63;5069395;28;20413;-72
2023/02/08 02:59:10;;;;;;;0.20;0.20;;;;;;;-3.86;95.13;102772.28;5071149;28;20844;-70
2023/02/08 03:01:37;;;;;;;5.93;4.17;;;;;;;-3.96;95.01;102783.06;5070441;28;20419;-71
2023/02/08 03:04:40;;;;;;;3.67;3.10;;;;;;;-4.05;94.90;102775.16;5070692;28;20478;-71
2023/02/08 03:07:17;;;;;;;0.80;0.80;;;;;;;-4.08;94.81;102780.81;5070166;28;20472;-70
2023/02/08 03:10:01;;;;;;;4.20;2.07;;;;;;;-4.14;95.08;102774.28;5070567;28;20428;-71
2023/02/08 03:12:55;;;;;;;0.00;0.00;;;;;;;-4.14;95.34;102773.47;5070672;28;20431;-70
2023/02/08 03:15:45;;;;;;;0.00;0.00;;;;;;;-4.17;95.59;102785.28;5070668;28;20413;-71
2023/02/08 03:18:29;;;;;;;0.00;0.00;;;;;;;-4.08;96.11;102780.81;5069422;28;20428;-71
2023/02/08 03:21:12;;;;;;;0.20;0.20;;;;;;;-4.01;96.38;102787.22;5070405;28;20888;-71
2023/02/08 03:23:42;;;;;;;0.30;0.30;;;;;;;-4.10;96.32;102788.16;5070602;28;20412;-71
2023/02/08 03:26:51;;;;;;;1.07;1.03;;;;;;;-4.31;96.44;102786.69;5069181;28;20483;-71
2023/02/08 03:29:29;;;;;;;1.20;1.10;;;;;;;-4.28;95.81;102775.69;5070564;28;20405;-71
2023/02/08 03:32:03;;;;;;;0.53;0.53;;;;;;;-4.22;96.25;102776.91;5070184;28;20424;-71
2023/02/08 03:35:13;;;;;;;0.60;0.60;;;;;;;-4.25;95.82;102774.53;5070357;28;20401;-71
2023/02/08 03:37:45;;;;;;;0.00;0.00;;;;;;;-4.15;96.07;102774.47;5070168;28;20417;-71
2023/02/08 03:40:19;;;;;;;0.00;0.00;;;;;;;-4.14;95.27;102773.47;5070267;28;20417;-71
2023/02/08 03:42:47;;;;;;;0.00;0.00;;;;;;;-4.13;95.69;102767.13;5070861;28;20753;-71
2023/02/08 03:45:31;;;;;;;1.50;1.50;;;;;;;-4.12;95.49;102764.28;5070336;28;20982;-71
2023/02/08 03:48:01;;;;;;;1.30;1.30;;;;;;;-4.08;95.02;102754.13;5070253;28;21018;-71
2023/02/08 03:50:29;;;;;;;4.13;1.40;;;;;;;-4.06;94.43;102760.97;5073870;28;20413;-71
2023/02/08 03:52:55;;;;;;;0.20;0.20;;;;;;;-4.02;94.26;102753.53;5074116;28;21003;-71
2023/02/08 03:55:25;;;;;;;0.00;0.00;;;;;;;-3.98;93.93;102755.72;5074038;28;20503;-70
2023/02/08 03:57:59;;;;;;;0.00;0.00;;;;;;;-3.93;94.13;102757.88;5073675;28;20175;-71
2023/02/08 04:00:25;;;;;;;0.00;0.00;;;;;;;-3.90;93.31;102742.41;5073974;28;20811;-71
2023/02/08 04:03:27;;;;;;;0.00;0.00;;;;;;;-3.85;92.95;102749.09;5072591;28;20447;-71
2023/02/08 04:05:53;;;;;;;0.10;0.10;;;;;;;-3.87;92.36;102733.25;5031047;28;20521;-72
2023/02/08 04:08:19;;;;;;;0.00;0.00;;;;;;;-3.89;92.08;102737.91;5065457;28;20429;-70
2023/02/08 04:10:46;;;;;;;0.00;0.00;;;;;;;-3.90;92.16;102738.91;5073747;28;20178;-71
2023/02/08 04:13:11;;;;;;;1.77;1.70;;;;;;;-3.87;91.32;102743.94;5073752;28;20179;-70
2023/02/08 04:15:36;;;;;;;0.10;0.10;;;;;;;-3.84;90.66;102742.75;5073837;28;20815;-71
2023/02/08 04:18:02;;;;;;;0.07;0.07;;;;;;;-3.67;90.42;102752.50;5073666;28;20182;-71
2023/02/08 04:20:27;;;;;;;0.00;0.00;;;;;;;-3.77;90.11;102752.63;5072146;28;20186;-71
2023/02/08 04:22:52;;;;;;;0.47;0.47;;;;;;;-3.78;89.26;102758.97;5073464;28;20202;-71
2023/02/08 04:25:18;;;;;;;1.30;1.30;;;;;;;-3.77;89.16;102759.81;5072385;28;20574;-71
2023/02/08 04:27:43;;;;;;;0.20;0.20;;;;;;;-3.86;89.11;102748.25;5073299;28;20224;-70
2023/02/08 04:30:09;;;;;;;1.23;1.23;;;;;;;-3.94;89.64;102754.38;5073300;28;20178;-70
2023/02/08 04:32:34;;;;;;;0.00;0.00;;;;;;;-3.88;89.28;102758.28;5073467;28;20219;-70
2023/02/08 04:34:59;;;;;;;0.47;0.47;;;;;;;-3.87;89.40;102757.28;5073394;28;20425;-70
2023/02/08 04:37:25;;;;;;;0.00;0.00;;;;;;;-3.81;89.26;102755.78;5073325;28;20166;-71
2023/02/08 04:39:50;;;;;;;7.10;1.33;;;;;;;-3.81;88.79;102753.97;5073165;28;20181;-70
2023/02/08 04:42:15;;;;;;;0.00;0.00;;;;;;;-3.76;88.67;102765.00;5073105;28;20468;-71
2023/02/08 04:44:41;;;;;;;1.10;1.00;;;;;;;-3.61;88.40;102758.06;5073178;28;20505;-71
2023/02/08 04:47:06;;;;;;;0.67;0.67;;;;;;;-3.45;87.67;102769.81;5072957;28;20190;-70
2023/02/08 04:49:31;;;;;;;1.90;1.80;;;;;;;-3.43;87.00;102770.50;5072747;28;20182;-71
2023/02/08 04:51:57;;;;;;;3.10;3.00;;;;;;;-3.46;86.91;102771.66;5072777;28;20185;-71
2023/02/08 04:54:22;;;;;;;0.00;0.00;;;;;;;-3.44;86.72;102780.34;5073019;28;20174;-71
2023/02/08 04:56:47;;;;;;;0.00;0.00;;;;;;;-3.47;86.64;102778.00;5072656;28;20178;-70
2023/02/08 04:59:13;;;;;;;0.17;0.17;;;;;;;-3.46;86.88;102778.84;5072567;28;20590;-71
2023/02/08 05:01:38;;;;;;;0.10;0.10;;;;;;;-3.50;86.99;102772.94;5072975;28;20585;-71
2023/02/08 05:04:04;;;;;;;13.30;11.97;;;;;;;-3.50;87.24;102777.47;5072874;28;20163;-71
2023/02/08 05:06:29;;;;;;;0.50;0.50;;;;;;;-3.62;86.92;102783.09;5071136;28;20209;-71
2023/02/08 05:08:54;;;;;;;0.63;0.63;;;;;;;-3.68;87.61;102774.88;5072711;28;20205;-71
2023/02/08 05:11:21;;;;;;;3.50;3.17;;;;;;;-3.80;87.75;102776.16;5072612;28;20207;-71
2023/02/08 05:13:47;;;;;;;1.30;1.20;;;;;;;-3.86;88.64;102785.66;5072547;28;20638;-71
2023/02/08 05:16:12;;;;;;;3.53;3.33;;;;;;;-4.02;89.23;102785.56;5072428;28;20428;-70
2023/02/08 05:18:37;;;;;;;1.37;0.77;;;;;;;-4.01;89.34;102793.41;5072453;28;20177;-71
2023/02/08 05:21:03;;;;;;;3.23;3.03;;;;;;;-4.21;90.51;102782.06;5072370;28;20641;-70
2023/02/08 05:23:28;;;;;;;0.27;0.27;;;;;;;-4.27;91.10;102803.22;5072456;28;20695;-71
2023/02/08 05:25:54;;;;;;;0.00;0.00;;;;;;;-4.26;92.68;102805.72;5070895;28;20174;-70
2023/02/08 05:28:19;;;;;;;0.60;0.60;;;;;;;-4.23;92.99;102793.91;5072334;28;20170;-71
2023/02/08 05:30:45;;;;;;;3.50;3.37;;;;;;;-4.42;93.91;102794.94;5071964;28;20254;-72
2023/02/08 05:33:11;;;;;;;3.80;3.60;;;;;;;-4.47;94.93;102807.06;5072185;28;20224;-71
2023/02/08 05:35:36;;;;;;;2.37;2.23;;;;;;;-4.54;94.96;102802.34;5072086;28;20416;-72
2023/02/08 05:38:02;;;;;;;3.70;3.43;;;;;;;-4.73;95.53;102796.34;5071955;28;20174;-72
2023/02/08 05:40:27;;;;;;;4.50;4.07;;;;;;;-4.82;96.26;102801.56;5071910;28;20179;-73
2023/02/08 05:42:52;;;;;;;1.17;1.17;;;;;;;-4.83;96.72;102796.41;5071937;28;20615;-73
2023/02/08 05:45:18;;;;;;;2.83;1.57;;;;;;;-4.76;97.38;102792.16;5070598;28;20622;-70
2023/02/08 05:47:46;;;;;;;1.53;0.83;;;;;;;-4.71;97.75;102797.00;5071758;28;20206;-70
2023/02/08 05:50:11;;;;;;;0.77;0.77;;;;;;;-4.70;98.09;102791.53;5071517;28;20661;-71
2023/02/08 05:52:37;;;;;;;1.40;1.13;;;;;;;-4.76;97.56;102796.66;5071717;28;20449;-71
2023/02/08 05:55:02;;;;;;;0.93;0.93;;;;;;;-4.86;97.24;102794.03;5071761;28;20174;-73
2023/02/08 05:57:28;;;;;;;1.50;1.50;;;;;;;-4.89;97.89;102787.19;5071395;28;20224;-73
2023/02/08 05:59:53;;;;;;;0.03;0.03;;;;;;;-4.90;97.63;102798.00;5070344;28;20205;-73
2023/02/08 06:02:18;;;;;;;0.27;0.27;;;;;;;-4.87;97.63;102795.88;5071461;28;20186;-72
2023/02/08 06:04:44;;;;;;;1.13;1.13;;;;;;;-4.82;97.92;102803.41;5071731;28;20186;-71
2023/02/08 06:07:10;;;;;;;3.00;2.80;;;;;;;-4.89;98.03;102800.53;5071530;28;20210;-70
2023/02/08 06:09:35;;;;;;;2.17;2.07;;;;;;;-4.88;98.02;102804.84;5070243;28;20478;-71
2023/02/08 06:12:00;;;;;;;0.00;0.00;;;;;;;-4.92;97.56;102806.16;5070669;28;20227;-70
2023/02/08 06:14:26;;;;;;;0.20;0.20;;;;;;;-4.72;97.64;102801.50;5071504;28;20525;-72
2023/02/08 06:16:51;;;;;;;0.43;0.43;;;;;;;-4.59;97.69;102806.47;5071278;28;20199;-71
2023/02/08 06:19:17;;;;;;;0.00;0.00;;;;;;;-4.72;97.49;102808.69;5071408;28;20261;-71
2023/02/08 06:21:42;;;;;;;0.00;0.00;;;;;;;-4.76;97.04;102804.66;5071323;28;20533;-71
2023/02/08 06:24:08;;;;;;;0.00;0.00;;;;;;;-4.58;97.56;102813.47;5071394;28;20866;-71
2023/02/08 06:26:34;;;;;;;0.97;0.97;;;;;;;-4.43;97.39;102811.94;5070947;28;20526;-72
2023/02/08 06:29:00;;;;;;;1.10;1.10;;;;;;;-4.42;96.49;102805.59;5071115;28;20428;-71
2023/02/08 06:31:25;;;;;;;0.10;0.10;;;;;;;-4.60;96.32;102810.13;5070779;28;20166;-71
2023/02/08 06:33:50;;;;;;;0.03;0.03;;;;;;;-4.57;95.31;102810.66;5071279;28;20261;-71
2023/02/08 06:36:16;;;;;;;2.17;2.07;;;;;;;-4.60;95.09;102810.13;5070953;28;20182;-70
2023/02/08 06:38:41;;;;;;;0.40;0.40;;;;;;;-4.62;95.17;102810.28;5071000;28;20681;-71
2023/02/08 06:41:06;;;;;;;0.13;0.13;;;;;;;-4.60;94.86;102808.28;5070839;28;20183;-70
2023/02/08 06:43:32;;;;;;;0.07;0.07;;;;;;;-4.62;95.40;102801.44;5070946;28;20241;-71
2023/02/08 06:45:57;;;;;;;10.10;7.43;;;;;;;-4.57;94.78;102807.97;5070723;28;20257;-71
2023/02/08 06:48:22;;;;;;;9.43;4.07;;;;;;;-4.51;95.24;102801.19;5070824;28;20254;-72
2023/02/08 06:50:51;;;;;;;0.00;0.00;;;;;;;-4.68;95.38;102805.53;5070771;28;20634;-71
2023/02/08 06:53:16;;;;;;;1.60;1.50;;;;;;;-4.78;95.57;102808.28;5070777;28;20185;-71
2023/02/08 06:55:42;;;;;;;0.03;0.03;;;;;;;-5.01;96.01;102811.56;5070697;28;20413;-71
2023/02/08 06:58:07;;;;;;;0.17;0.17;;;;;;;-5.04;96.63;102827.84;5071039;28;20615;-71
2023/02/08 07:00:33;;;;;;;0.10;0.10;;;;;;;-5.13;97.18;102822.41;5069506;28;20201;-71
2023/02/08 07:02:59;;;;;;;0.37;0.37;;;;;;;-4.88;97.87;102810.19;5070735;28;20178;-71
2023/02/08 07:05:25;;;;;;;0.00;0.00;;;;;;;-4.68;97.37;102804.69;5070649;28;20170;-73
2023/02/08 07:07:50;;;;;;;0.20;0.20;;;;;;;-4.63;97.73;102811.28;5070806;28;20799;-71
2023/02/08 07:10:15;;;;;;;2.90;2.87;;;;;;;-4.56;96.97;102808.81;5070490;28;20261;-70
2023/02/08 07:12:40;;;;;;;0.77;0.77;;;;;;;-4.52;96.94;102818.19;5070688;28;20175;-70
2023/02/08 07:15:06;;;;;;;3.30;3.00;;;;;;;-4.52;96.56;102815.50;5070821;28;20181;-70
2023/02/08 07:17:31;;;;;;;0.40;0.40;;;;;;;-4.52;96.63;102815.50;5070387;28;20198;-73
2023/02/08 07:19:57;;;;;;;2.70;2.57;;;;;;;-4.51;96.16;102817.19;5070474;28;20170;-73
2023/02/08 07:22:22;;;;;;;3.67;3.57;;;;;;;-4.42;95.42;102820.78;5070928;28;20174;-73
2023/02/08 07:24:47;;;;;;;0.10;0.10;;;;;;;-4.37;95.81;102808.63;5075134;28;20698;-74
2023/02/08 07:27:13;;;;;;;0.00;0.00;;;;;;;-4.29;95.85;102814.06;5074775;28;20604;-73
2023/02/08 07:29:38;;;;;;;0.00;0.00;;;;;;;-4.49;96.15;102807.19;5074329;28;20221;-75
2023/02/08 07:32:06;;;;;;;0.00;0.00;;;;;;;-4.65;96.62;102810.56;5074386;28;20709;-74
2023/02/08 07:34:34;;;;;;;0.00;0.00;;;;;;;-4.66;97.68;102816.06;5074700;28;20273;-71
2023/02/08 07:36:59;;;;;;;0.00;0.00;;;;;;;-4.54;97.58;102813.00;5074299;28;20473;-71
2023/02/08 07:39:25;;;;;;;0.67;0.67;;;;;;;-4.28;98.03;102820.22;5074397;28;20421;-70
2023/02/08 07:41:50;;;;;;;0.00;0.00;;;;;;;-4.25;97.86;102804.72;5074345;28;20195;-71
2023/02/08 07:44:15;;;;;;;0.00;0.00;;;;;;;-4.39;98.25;102799.97;5074545;28;20170;-71
2023/02/08 07:46:41;;;;;;;0.00;0.00;;;;;;;-4.34;98.92;102807.47;5074206;28;20277;-70
2023/02/08 07:49:06;;;;;;;0.13;0.13;;;;;;;-4.18;98.38;102806.81;5074284;28;20175;-70
2023/02/08 07:51:32;;;;;;;0.60;0.60;;;;;;;-4.02;98.15;102799.75;5073934;28;20193;-71
2023/02/08 07:53:57;;;;;;;0.20;0.20;;;;;;;-3.95;97.79;102797.25;5074132;28;20174;-70
2023/02/08 07:56:22;;;;;;;1.67;1.50;;;;;;;-3.97;97.19;102786.75;5073569;28;20681;-70
2023/02/08 07:58:47;;;;;;;0.77;0.77;;;;;;;-3.95;96.38;102779.41;5074227;28;20185;-74
2023/02/08 08:01:13;;;;;;;0.00;0.00;;;;;;;-3.88;95.27;102787.63;5073617;28;20185;-76
2023/02/08 08:03:38;;;;;;;1.93;1.90;;;;;;;-3.85;95.72;102797.16;5073362;28;20661;-74
2023/02/08 08:06:03;;;;;;;1.07;1.07;;;;;;;-3.72;95.08;102792.22;5073128;28;20182;-70
2023/02/08 08:08:29;;;;;;;0.00;0.00;;;;;;;-3.60;95.11;102790.97;5073401;28;20210;-70
2023/02/08 08:10:56;;;;;;;0.00;0.00;;;;;;;-3.52;95.01;102784.81;5073683;28;20182;-72
2023/02/08 08:13:21;;;;;;;0.57;0.57;;;;;;;-3.45;94.94;102785.84;5073735;28;20699;-71
2023/02/08 08:15:47;;;;;;;1.13;1.13;;;;;;;-3.48;94.83;102789.66;5073500;28;20470;-72
2023/02/08 08:18:12;;;;;;;5.10;3.70;;;;;;;-3.48;94.64;102786.97;5073862;28;20182;-71
2023/02/08 08:20:37;;;;;;;0.97;0.97;;;;;;;-3.45;94.63;102783.19;5073182;28;20511;-77
2023/02/08 08:23:03;;;;;;;0.50;0.50;;;;;;;-3.38;94.65;102784.19;5073271;28;20642;-74
2023/02/08 08:25:28;;;;;;;0.00;0.00;;;;;;;-3.31;94.97;102788.75;5073465;28;20182;-73
2023/02/08 08:27:53;;;;;;;6.93;2.03;;;;;;;-3.23;94.89;102787.06;5072427;28;20441;-74
2023/02/08 08:30:19;;;;;;;0.00;0.00;;;;;;;-3.16;94.70;102799.66;5073121;28;20216;-74
2023/02/08 08:32:45;;;;;;;0.33;0.30;;;;;;;-3.08;94.65;102791.63;5072981;28;20253;-70
2023/02/08 08:35:10;;;;;;;0.20;0.20;;;;;;;-3.05;94.47;102791.28;5070966;28;20174;-71
2023/02/08 08:37:36;;;;;;;0.00;0.00;;;;;;;-3.00;94.51;102789.00;5073178;28;20190;-73
2023/02/08 08:40:03;;;;;;;0.00;0.00;;;;;;;-2.94;94.87;102786.66;5073106;28;20675;-71
2023/02/08 08:42:28;;;;;;;0.00;0.00;;;;;;;-2.92;95.44;102785.47;5073478;28;20530;-71
2023/02/08 08:44:53;;;;;;;0.03;0.03;;;;;;;-2.81;95.56;102792.34;5073316;28;20417;-77
2023/02/08 08:47:19;;;;;;;0.70;0.70;;;;;;;-2.72;95.40;102789.53;5072978;28;20206;-74
2023/02/08 08:49:44;;;;;;;5.10;1.47;;;;;;;-2.67;95.05;102789.03;5073234;28;20173;-72
2023/02/08 08:52:11;;;;;;;0.83;0.83;;;;;;;-2.66;94.78;102785.34;5073293;28;20471;-74
2023/02/08 08:54:37;;;;;;;0.00;0.00;;;;;;;-2.60;94.53;102781.19;5073581;28;20186;-74
2023/02/08 08:57:02;;;;;;;0.00;0.00;;;;;;;-2.58;94.81;102774.66;5073133;28;20421;-71
2023/02/08 08:59:27;;;;;;;0.77;0.77;;;;;;;-2.48;95.20;102769.13;5073045;28;20662;-75
2023/02/08 09:01:53;;;;;;;0.10;0.10;;;;;;;-2.40;95.46;102777.16;5072833;28;20273;-75
2023/02/08 09:04:21;;;;;;;0.67;0.67;;;;;;;-2.54;94.67;102772.47;5071670;28;20222;-77
2023/02/08 09:06:49;;;;;;;1.27;0.73;;;;;;;-2.50;94.70;102774.66;5072550;28;20206;-73
2023/02/08 09:09:15;;;;;;;0.00;0.00;;;;;;;-2.37;94.66;102776.81;5072694;28;20439;-70
2023/02/08 09:11:40;;;;;;;0.00;0.00;;;;;;;-2.25;94.97;102774.66;5072542;28;20456;-74
2023/02/08 09:14:06;;;;;;;0.00;0.00;;;;;;;-2.10;94.90;102775.63;5072575;28;20575;-72
2023/02/08 09:16:32;;;;;;;0.93;0.93;;;;;;;-2.02;94.90;102767.59;5072314;28;20545;-74
2023/02/08 09:19:06;;;;;;;0.00;0.00;;;;;;;-1.78;92.12;102771.19;5070957;28;20183;-74
2023/02/08 09:21:31;;;;;;;0.00;0.00;;;;;;;-1.59;91.07;102770.78;5071958;28;20301;-74
2023/02/08 09:23:57;;;;;;;0.70;0.70;;;;;;;-1.47;89.71;102773.91;5070987;28;20946;-74
2023/02/08 09:26:25;;;;;;;0.60;0.60;;;;;;;-1.41;89.93;102768.72;5072093;28;20209;-75
2023/02/08 09:28:50;;;;;;;0.77;0.77;;;;;;;-1.36;89.56;102754.78;5072284;28;20183;-78
2023/02/08 09:31:25;;;;;;;0.67;0.67;;;;;;;-1.28;89.57;102777.03;5072650;28;20417;-77
2023/02/08 09:33:51;;;;;;;2.93;1.80;;;;;;;-1.18;89.54;102773.28;5072198;28;20178;-74
2023/02/08 09:36:18;;;;;;;1.77;1.67;;;;;;;-1.10;89.79;102775.94;5070496;28;20909;-73
2023/02/08 09:38:44;;;;;;;1.13;1.13;;;;;;;-1.09;89.90;102774.91;5072093;28;20424;-78
2023/02/08 09:41:47;;;;;;;2.07;1.97;;;;;;;-1.10;88.81;102763.34;5071807;28;20421;-76
2023/02/08 09:44:30;;;;;;;1.90;1.50;;;;;;;-1.02;88.97;102770.50;5071985;28;20416;-79
2023/02/08 09:47:02;;;;;;;0.10;0.10;;;;;;;-0.98;88.90;102769.97;5070611;28;20456;-78
2023/02/08 09:49:34;;;;;;;2.10;1.90;;;;;;;-0.93;88.25;102770.28;5070107;28;20435;-76
2023/02/08 09:52:05;;;;;;;0.00;0.00;;;;;;;-0.84;88.52;102779.13;5071913;28;20401;-71
2023/02/08 09:54:36;;;;;;;3.57;3.37;;;;;;;-0.84;88.27;102768.38;5071441;28;20455;-73
2023/02/08 09:57:07;;;;;;;0.47;0.47;;;;;;;-0.78;87.11;102764.13;5071521;28;20405;-72
2023/02/08 09:59:34;;;;;;;2.30;1.50;;;;;;;-0.65;87.70;102773.25;5070441;28;20425;-75
2023/02/08 10:02:28;;;;;;;0.40;0.40;;;;;;;-0.61;86.72;102769.19;5071462;28;20492;-79
2023/02/08 10:05:04;;;;;;;0.70;0.70;;;;;;;-0.58;85.36;102767.16;5071614;28;20409;-77
2023/02/08 10:07:31;;;;;;;2.87;2.87;;;;;;;-0.45;84.70;102770.06;5071249;28;20476;-78
2023/02/08 10:10:00;;;;;;;1.50;1.50;;;;;;;-0.32;83.81;102772.97;5070055;28;20432;-76
2023/02/08 10:12:37;;;;;;;2.20;2.10;;;;;;;-0.26;82.01;102763.38;5069997;28;20519;-79
2023/02/08 10:15:21;;;;;;;11.70;5.00;;;;;;;-0.20;81.59;102766.16;5071404;28;20932;-74
2023/02/08 10:17:53;;;;;;;1.47;1.43;;;;;;;-0.19;80.46;102759.78;5070360;28;20940;-72
2023/02/08 10:20:39;;;;;;;1.20;1.10;;;;;;;-0.12;80.58;102765.25;5071043;28;20814;-73
2023/02/08 10:23:23;;;;;;;1.40;0.43;;;;;;;-0.02;80.12;102755.88;5071252;28;20175;-74
2023/02/08 10:26:07;;;;;;;0.27;0.27;;;;;;;0.11;80.00;102757.94;5071073;28;20888;-74
2023/02/08 10:28:47;;;;;;;2.10;1.93;;;;;;;-0.02;79.68;102750.53;5071092;28;20265;-75
2023/02/08 10:31:24;;;;;;;6.50;5.90;;;;;;;0.06;78.95;102767.59;5070985;28;20407;-76
2023/02/08 10:34:25;;;;;;;12.33;5.73;;;;;;;0.07;78.90;102750.44;5071047;28;20253;-78
2023/02/08 10:36:51;;;;;;;8.90;5.27;;;;;;;0.10;78.46;102752.75;5031947;28;20932;-77
2023/02/08 10:39:31;;;;;;;1.50;1.50;;;;;;;0.08;80.23;102752.09;5071044;28;20196;-75
2023/02/08 10:41:56;;;;;;;0.10;0.10;;;;;;;0.29;81.81;102758.44;5070868;28;20405;-74
2023/02/08 10:44:46;;;;;;;1.30;1.30;;;;;;;0.40;82.09;102764.34;5071254;28;20181;-69
2023/02/08 10:47:30;;;;;;;0.17;0.17;;;;;;;0.46;81.46;102761.75;5071683;28;20232;-69
2023/02/08 10:50:10;;;;;;;0.00;0.00;;;;;;;0.42;81.57;102760.44;5076867;28;20196;-69
2023/02/08 10:52:35;;;;;;;1.03;1.03;;;;;;;0.49;81.67;102758.69;5070584;28;20397;-68
2023/02/08 10:55:01;;;;;;;0.00;0.00;;;;;;;0.44;80.33;102750.34;5070968;28;20182;-69
2023/02/08 10:57:30;;;;;;;0.73;0.53;;;;;;;0.52;80.50;102752.09;5070352;28;20626;-69
2023/02/08 11:00:10;;;;;;;4.57;3.80;;;;;;;0.57;80.18;102741.59;5069767;28;20536;-74
2023/02/08 11:02:40;;;;;;;3.23;1.33;;;;;;;0.59;80.10;102742.25;5071372;28;20174;-69
2023/02/08 11:05:18;;;;;;;0.30;0.30;;;;;;;0.70;79.92;102740.91;5069430;28;20181;-71
2023/02/08 11:07:43;;;;;;;2.57;2.47;;;;;;;0.78;79.35;102743.50;5071090;28;20213;-70
2023/02/08 11:10:17;;;;;;;0.30;0.30;;;;;;;0.98;79.99;102739.16;5070475;28;21023;-71
2023/02/08 11:12:54;;;;;;;1.10;1.10;;;;;;;1.17;79.68;102735.88;5070895;28;20204;-71
2023/02/08 11:15:28;;;;;;;0.43;0.43;;;;;;;1.04;78.93;102726.81;5070537;28;20171;-70
2023/02/08 11:18:00;;;;;;;1.60;1.50;;;;;;;0.93;79.83;102724.63;5070487;28;20539;-70
2023/02/08 11:20:32;;;;;;;3.70;3.50;;;;;;;0.96;79.79;102727.75;5070668;28;20175;-70
2023/02/08 11:22:58;;;;;;;9.50;1.83;;;;;;;1.13;80.06;102723.78;5070692;28;20171;-70
2023/02/08 11:25:33;;;;;;;1.73;1.63;;;;;;;1.13;79.60;102710.31;5070426;28;20181;-74
2023/02/08 11:27:59;;;;;;;0.80;0.80;;;;;;;1.16;78.06;102706.44;5070670;28;20251;-75
2023/02/08 11:30:25;;;;;;;1.93;1.80;;;;;;;1.26;77.84;102701.53;5070353;28;20210;-72
2023/02/08 11:33:27;;;;;;;2.07;1.97;;;;;;;1.51;77.34;102706.53;5069181;28;20604;-70
2023/02/08 11:35:54;;;;;;;1.77;1.57;;;;;;;1.68;77.42;102708.72;4988512;28;20189;-70
2023/02/08 11:38:26;;;;;;;0.00;0.00;;;;;;;1.78;76.61;102698.44;5054868;28;20626;-69
2023/02/08 11:40:54;;;;;;;1.83;1.67;;;;;;;1.69;76.13;102702.31;5070298;28;20199;-71